Ana Sayfa
METAR-TAF:

METAR-TAF

Havaalanları :

Bujumbura, Burundi

Enlem: 03-19S, Boylam: 029-19E, yükseklik: 782 m

Güncel hava durumu gözlemi

Rapor saat 08:00 UTC de 20 saat ve 37 dakika önce yapıldı.
Rüzgar güney/güneydoğudan 8 kt
Sıcaklık
Basınç 1015 hPa
Görüş mesafesi 10 km veya daha fazla
2500 ft yükseklikte az bulutlu

METAR: HBBA 180800Z 16008KT 9999 FEW025 SCT30028/19 Q1015 NOSIG

Saat: 06:37 (04:37 UTC)

Tahmin

Ayın 19'si saat 00 UTC'den ayın 20'si saat 06 UTC'ye kadar geçerli Tahmin
Rüzgar kuzeydan kt ve 20 kt'a kadar ani rüzgarlar
Görüş mesafesi 10 km veya daha fazla
1500 m altında bulut yok ve kümülonimbus yok

TAF: HBBA 1900/2006 00000KT CAVOK BECMG1907/1909 18010G20KT 9999 FEW030 BECMG1917/1919 00000KT CAVOK

4.000'den fazla havaalanı için hava durumu gözlemleri ve tahminleri (METAR ve TAF raporları).

Kullanılabilir istasyonlar harita üzerinde sarı ve kırmızı noktalarla gösterilir.

İstasyonun adını görmek için fareyi noktanın üzerinde gezdirin.

Sonrasında hava gözlem ve tahminlerini görmek için tıklayın.

Haritayı değiştirmek için: yaklaştırmak için siyah artı işaretli yeşil düğmeye ve uzaklaştırmak için de eksi işaretli düğmeye hızla tıklayın; bitişik haritalar için yeşil okları kullanın.


METAR-TAF: